Time;durP1;ratioP1;P1;durP2;ratioP2;P2;SDS_P1;SDS_P2;PMS_P1;PMS_P2;Temp;Humidity;BMP_temperature;BMP_pressure;BME280_temperature;BME280_humidity;BME280_pressure;Samples;Min_cycle;Max_cycle;Signal;HPM_P1;HPM_P2
2022/04/04 00:01:31;;;;;;;6.32;3.72;;;20.50;51.80;;;;;;5076449;28;20037;-72
2022/04/04 00:03:57;;;;;;;5.07;3.88;;;20.50;51.70;;;;;;5076779;28;20067;-73
2022/04/04 00:06:27;;;;;;;6.60;4.35;;;20.50;51.60;;;;;;5076601;28;20037;-72
2022/04/04 00:08:54;;;;;;;5.78;3.53;;;20.60;51.60;;;;;;5076661;28;20037;-72
2022/04/04 00:11:20;;;;;;;4.90;3.65;;;20.60;51.50;;;;;;5076829;28;20060;-72
2022/04/04 00:13:46;;;;;;;5.55;4.18;;;20.60;51.40;;;;;;5076815;28;20037;-72
2022/04/04 00:16:13;;;;;;;5.93;3.67;;;20.60;51.50;;;;;;5076393;28;20056;-72
2022/04/04 00:18:39;;;;;;;6.63;3.95;;;20.50;51.50;;;;;;5076836;28;20037;-72
2022/04/04 00:21:08;;;;;;;5.53;4.10;;;20.50;51.50;;;;;;5076593;28;20048;-72
2022/04/04 00:23:34;;;;;;;6.18;3.53;;;20.40;51.40;;;;;;5076565;28;20037;-72
2022/04/04 00:26:05;;;;;;;4.80;4.00;;;20.40;51.40;;;;;;5076061;28;20056;-72
2022/04/04 00:28:31;;;;;;;6.10;4.10;;;20.40;51.80;;;;;;5076530;28;20045;-72
2022/04/04 00:30:59;;;;;;;7.25;4.10;;;20.50;51.60;;;;;;5076465;28;20101;-73
2022/04/04 00:33:25;;;;;;;7.25;4.10;;;20.40;51.60;;;;;;5076547;28;20100;-73
2022/04/04 00:35:54;;;;;;;5.38;3.65;;;20.40;51.60;;;;;;5076203;28;20033;-72
2022/04/04 00:38:22;;;;;;;4.90;4.03;;;20.40;51.50;;;;;;5076272;28;20112;-72
2022/04/04 00:40:49;;;;;;;6.55;4.05;;;20.40;51.40;;;;;;5076386;28;20037;-72
2022/04/04 00:43:15;;;;;;;7.55;4.85;;;20.50;51.40;;;;;;5076298;28;20040;-72
2022/04/04 00:45:46;;;;;;;6.95;4.15;;;20.50;51.30;;;;;;5076042;28;20096;-72
2022/04/04 00:48:12;;;;;;;5.07;3.80;;;20.40;51.20;;;;;;5076471;28;20055;-72
2022/04/04 00:50:39;;;;;;;5.75;4.45;;;20.50;51.20;;;;;;5077933;28;20048;-73
2022/04/04 00:53:09;;;;;;;7.00;4.47;;;20.50;51.20;;;;;;5079795;28;20051;-72
2022/04/04 00:55:36;;;;;;;6.60;4.65;;;20.60;51.10;;;;;;5080363;28;20029;-72
2022/04/04 00:58:04;;;;;;;5.40;4.05;;;20.50;51.20;;;;;;5080249;28;20045;-72
2022/04/04 01:00:31;;;;;;;6.63;4.22;;;20.40;51.10;;;;;;5080283;28;20047;-73
2022/04/04 01:02:57;;;;;;;8.98;4.38;;;20.40;51.20;;;;;;5080142;28;20136;-72
2022/04/04 01:05:24;;;;;;;6.05;4.15;;;20.40;51.10;;;;;;5080089;28;20063;-72
2022/04/04 01:07:51;;;;;;;5.07;3.75;;;20.40;51.20;;;;;;5080105;28;20082;-71
2022/04/04 01:10:17;;;;;;;6.10;4.10;;;20.40;51.30;;;;;;5080476;28;20072;-72
2022/04/04 01:12:54;;;;;;;5.55;4.10;;;20.40;51.30;;;;;;5080228;28;20045;-73
2022/04/04 01:15:23;;;;;;;6.82;4.28;;;20.40;51.30;;;;;;5080138;28;20043;-72
2022/04/04 01:17:50;;;;;;;7.60;3.78;;;20.30;51.30;;;;;;5079949;28;20048;-72
2022/04/04 01:20:17;;;;;;;6.65;3.95;;;20.30;51.30;;;;;;5079799;28;20041;-72
2022/04/04 01:22:50;;;;;;;6.03;4.28;;;20.30;51.30;;;;;;5079430;28;20501;-72
2022/04/04 01:25:24;;;;;;;5.75;4.03;;;20.20;51.10;;;;;;5080020;28;20029;-73
2022/04/04 01:27:51;;;;;;;7.32;4.13;;;20.30;51.20;;;;;;5079596;28;20109;-72
2022/04/04 01:30:17;;;;;;;7.38;4.20;;;20.20;50.90;;;;;;5079698;28;20040;-72
2022/04/04 01:32:44;;;;;;;10.85;4.13;;;20.20;50.80;;;;;;5079701;28;20096;-72
2022/04/04 01:35:11;;;;;;;4.95;3.40;;;20.20;50.70;;;;;;5079599;28;20052;-72
2022/04/04 01:37:37;;;;;;;5.82;4.15;;;20.30;50.80;;;;;;5079438;28;20049;-72
2022/04/04 01:40:07;;;;;;;4.15;3.58;;;20.40;50.90;;;;;;5079594;28;20044;-72
2022/04/04 01:42:35;;;;;;;6.00;3.20;;;20.20;50.80;;;;;;5079294;28;20061;-73
2022/04/04 01:45:01;;;;;;;5.75;4.00;;;20.20;50.90;;;;;;5079508;28;20045;-73
2022/04/04 01:47:27;;;;;;;5.13;3.78;;;20.20;50.90;;;;;;5079193;28;20037;-72
2022/04/04 01:49:53;;;;;;;5.03;3.92;;;20.10;50.90;;;;;;5079415;28;20048;-72
2022/04/04 01:52:19;;;;;;;5.10;3.22;;;20.10;50.90;;;;;;5079411;28;20048;-73
2022/04/04 01:54:46;;;;;;;5.18;3.50;;;20.10;50.80;;;;;;5079131;28;20104;-72
2022/04/04 01:57:12;;;;;;;6.03;4.13;;;20.20;50.70;;;;;;5079116;28;20057;-72
2022/04/04 01:59:42;;;;;;;4.05;3.10;;;20.20;50.60;;;;;;5079186;28;20045;-72
2022/04/04 02:02:08;;;;;;;5.65;3.50;;;20.20;50.60;;;;;;5078461;28;20109;-72
2022/04/04 02:04:35;;;;;;;4.88;3.63;;;20.20;50.50;;;;;;5079207;28;20036;-73
2022/04/04 02:07:02;;;;;;;7.25;3.70;;;20.20;50.30;;;;;;5079010;28;20037;-72
2022/04/04 02:09:29;;;;;;;4.25;3.60;;;20.10;50.30;;;;;;5078995;28;20040;-73
2022/04/04 02:11:55;;;;;;;4.15;3.50;;;20.30;50.30;;;;;;5078361;28;20045;-72
2022/04/04 02:14:21;;;;;;;5.65;3.72;;;20.20;50.10;;;;;;5070881;28;20128;-72
2022/04/04 02:16:48;;;;;;;6.63;3.50;;;20.30;50.20;;;;;;5073477;28;20047;-72
2022/04/04 02:19:16;;;;;;;6.05;4.18;;;20.20;50.20;;;;;;5078223;28;20064;-72
2022/04/04 02:21:42;;;;;;;5.60;3.83;;;20.20;50.30;;;;;;5078659;28;20048;-72
2022/04/04 02:24:08;;;;;;;6.45;4.15;;;20.20;50.40;;;;;;5078868;28;20041;-72
2022/04/04 02:26:35;;;;;;;6.72;3.90;;;20.00;50.30;;;;;;5078559;28;20104;-73
2022/04/04 02:29:02;;;;;;;5.05;3.58;;;20.10;50.30;;;;;;5078640;28;20059;-73
2022/04/04 02:31:28;;;;;;;8.45;3.40;;;20.20;50.30;;;;;;5078698;28;20037;-72
2022/04/04 02:33:54;;;;;;;7.45;4.07;;;20.10;50.30;;;;;;5078670;28;20049;-72
2022/04/04 02:36:21;;;;;;;4.03;3.50;;;20.10;50.40;;;;;;5078275;28;20071;-73
2022/04/04 02:38:48;;;;;;;3.80;3.25;;;20.10;50.30;;;;;;5078359;28;20076;-72
2022/04/04 02:41:16;;;;;;;5.53;3.85;;;20.00;50.20;;;;;;5077677;28;20049;-73
2022/04/04 02:43:42;;;;;;;5.53;3.80;;;20.00;50.00;;;;;;5078177;28;20040;-72
2022/04/04 02:46:11;;;;;;;4.63;3.42;;;20.00;49.90;;;;;;5077786;28;20037;-73
2022/04/04 02:48:37;;;;;;;4.88;3.75;;;20.20;49.90;;;;;;5078194;28;20037;-73
2022/04/04 02:51:07;;;;;;;5.28;3.92;;;20.10;49.80;;;;;;5078189;28;20068;-72
2022/04/04 02:53:34;;;;;;;5.43;3.50;;;20.10;49.90;;;;;;5078305;28;20064;-73
2022/04/04 02:58:45;;;;;;;6.40;3.83;;;20.10;49.90;;;;;;5077914;28;20093;-72
2022/04/04 03:01:11;;;;;;;6.00;4.22;;;20.20;49.80;;;;;;5077990;28;20060;-72
2022/04/04 03:03:38;;;;;;;7.47;4.00;;;20.10;49.80;;;;;;5078039;28;20139;-72
2022/04/04 03:06:05;;;;;;;5.60;3.28;;;20.10;49.90;;;;;;5077874;28;20074;-72
2022/04/04 03:08:31;;;;;;;5.80;3.97;;;20.10;49.80;;;;;;5077709;28;20095;-73
2022/04/04 03:10:57;;;;;;;6.50;3.90;;;20.10;49.80;;;;;;5077831;28;20064;-73
2022/04/04 03:13:24;;;;;;;4.72;3.55;;;20.10;49.70;;;;;;5076890;28;20029;-73
2022/04/04 03:15:51;;;;;;;6.10;3.50;;;20.10;49.60;;;;;;5077795;28;20056;-73
2022/04/04 03:18:17;;;;;;;5.70;3.85;;;20.10;49.50;;;;;;5077565;28;20067;-73
2022/04/04 03:20:46;;;;;;;5.80;2.97;;;20.10;49.50;;;;;;5077636;28;20040;-72
2022/04/04 03:23:12;;;;;;;4.55;3.70;;;20.10;49.40;;;;;;5077442;28;20037;-72
2022/04/04 03:25:40;;;;;;;5.40;3.60;;;20.20;49.30;;;;;;5076877;28;20056;-72
2022/04/04 03:28:06;;;;;;;5.97;3.65;;;20.10;49.20;;;;;;5077446;28;20060;-72
2022/04/04 03:30:32;;;;;;;5.10;3.00;;;20.10;49.20;;;;;;5077353;28;20041;-73
2022/04/04 03:32:59;;;;;;;5.28;3.20;;;20.20;49.30;;;;;;5077427;28;20029;-73
2022/04/04 03:35:28;;;;;;;5.15;3.75;;;20.20;49.30;;;;;;5077216;28;20045;-72
2022/04/04 03:37:55;;;;;;;5.05;3.83;;;20.30;49.40;;;;;;5077062;28;20044;-72
2022/04/04 03:40:22;;;;;;;5.10;3.90;;;20.20;49.30;;;;;;5076999;28;20041;-72
2022/04/04 03:42:50;;;;;;;6.07;4.22;;;20.20;49.40;;;;;;5077282;28;20051;-72
2022/04/04 03:45:19;;;;;;;6.72;3.88;;;20.20;49.50;;;;;;5077300;28;20064;-73
2022/04/04 03:47:46;;;;;;;4.93;3.28;;;20.30;50.00;;;;;;5077108;28;20039;-71
2022/04/04 03:50:13;;;;;;;6.10;3.60;;;20.40;49.70;;;;;;5077352;28;20033;-72
2022/04/04 03:52:45;;;;;;;6.70;3.22;;;20.50;49.20;;;;;;5077144;28;20041;-73
2022/04/04 03:55:12;;;;;;;7.78;3.55;;;20.60;49.00;;;;;;5077175;28;20098;-72
2022/04/04 03:57:38;;;;;;;4.35;3.25;;;20.70;48.90;;;;;;5076270;28;20040;-73
2022/04/04 04:00:06;;;;;;;4.55;3.33;;;20.80;48.70;;;;;;5076212;28;20109;-73
2022/04/04 04:02:33;;;;;;;4.60;3.63;;;20.90;48.70;;;;;;5076331;28;20104;-72
2022/04/04 04:05:02;;;;;;;6.50;3.80;;;20.90;48.80;;;;;;5076381;28;20020;-72
2022/04/04 04:07:34;;;;;;;7.22;3.90;;;20.90;48.70;;;;;;5076566;28;20045;-75
2022/04/04 04:10:00;;;;;;;3.97;3.03;;;21.00;51.80;;;;;;5075568;28;20075;-75
2022/04/04 04:12:27;;;;;;;7.05;3.22;;;21.30;51.10;;;;;;5075605;28;20056;-76
2022/04/04 04:14:54;;;;;;;5.38;3.22;;;21.50;51.30;;;;;;5076014;28;20049;-76
2022/04/04 04:17:22;;;;;;;5.05;3.20;;;21.70;49.80;;;;;;5074948;28;20045;-78
2022/04/04 04:22:33;;;;;;;6.68;4.05;;;21.80;45.80;;;;;;5075871;28;20041;-77
2022/04/04 04:25:01;;;;;;;6.03;4.35;;;21.80;42.90;;;;;;5075706;28;20048;-73
2022/04/04 04:27:27;;;;;;;5.10;3.80;;;21.80;42.90;;;;;;5075873;28;20047;-73
2022/04/04 04:29:53;;;;;;;4.18;3.78;;;21.60;41.80;;;;;;5075797;28;20048;-72
2022/04/04 04:32:20;;;;;;;5.43;4.10;;;21.40;42.40;;;;;;5076037;28;20047;-71
2022/04/04 04:34:49;;;;;;;6.70;4.05;;;21.20;42.90;;;;;;5075642;28;20037;-72
2022/04/04 04:37:21;;;;;;;5.80;4.38;;;21.10;43.60;;;;;;5075849;28;20056;-72
2022/04/04 04:39:48;;;;;;;6.07;4.37;;;20.90;44.30;;;;;;5075814;28;20072;-73
2022/04/04 04:42:14;;;;;;;4.43;3.90;;;20.90;45.00;;;;;;5075691;28;20306;-73
2022/04/04 04:44:41;;;;;;;8.27;4.40;;;21.00;45.30;;;;;;5075705;28;20041;-73
2022/04/04 04:47:07;;;;;;;8.73;4.35;;;20.80;45.60;;;;;;5075786;28;20037;-73
2022/04/04 04:49:34;;;;;;;4.82;3.88;;;20.70;46.30;;;;;;5074786;28;20037;-72
2022/04/04 04:52:01;;;;;;;5.53;3.97;;;20.80;38.20;;;;;;5075640;28;20045;-71
2022/04/04 04:54:27;;;;;;;6.47;4.00;;;20.90;38.30;;;;;;5075269;28;20033;-72
2022/04/04 04:56:53;;;;;;;5.05;3.97;;;20.90;38.50;;;;;;5075441;28;20464;-73
2022/04/04 04:59:19;;;;;;;6.82;3.08;;;21.10;38.60;;;;;;5075522;28;20045;-72
2022/04/04 05:01:46;;;;;;;5.60;4.05;;;21.20;38.90;;;;;;5071848;28;20105;-73
2022/04/04 05:04:12;;;;;;;5.70;3.13;;;21.30;35.80;;;;;;5075506;28;20037;-73
2022/04/04 05:06:39;;;;;;;5.60;3.38;;;21.20;38.40;;;;;;5075089;28;20029;-73
2022/04/04 05:09:05;;;;;;;5.50;3.67;;;21.10;38.00;;;;;;5075358;28;20037;-73
2022/04/04 05:11:31;;;;;;;5.10;3.20;;;21.10;38.20;;;;;;5075214;28;20488;-73
2022/04/04 05:13:57;;;;;;;5.07;3.50;;;21.20;38.40;;;;;;5075282;28;20044;-72
2022/04/04 05:16:28;;;;;;;4.72;3.40;;;21.20;40.20;;;;;;5075334;28;20056;-72
2022/04/04 05:18:57;;;;;;;3.80;3.38;;;21.40;42.40;;;;;;5057544;28;20044;-72
2022/04/04 05:21:23;;;;;;;4.68;3.08;;;21.40;38.00;;;;;;5074737;28;20056;-71
2022/04/04 05:23:49;;;;;;;5.07;3.58;;;21.40;36.50;;;;;;5074512;28;20047;-72
2022/04/04 05:26:16;;;;;;;5.72;3.42;;;21.40;34.10;;;;;;5074162;28;20045;-71
2022/04/04 05:28:42;;;;;;;4.70;3.80;;;21.60;39.30;;;;;;5074395;28;20101;-72
2022/04/04 05:31:08;;;;;;;3.67;3.22;;;21.70;37.10;;;;;;5074100;28;20052;-72
2022/04/04 05:33:36;;;;;;;5.30;3.28;;;21.80;36.30;;;;;;5074243;28;20044;-71
2022/04/04 05:36:04;;;;;;;4.13;3.60;;;21.80;37.10;;;;;;5074849;28;20044;-73
2022/04/04 05:38:30;;;;;;;6.60;4.75;;;21.80;37.30;;;;;;5077036;28;20076;-72
2022/04/04 05:40:57;;;;;;;6.93;4.95;;;21.80;41.40;;;;;;5078693;28;20435;-74
2022/04/04 05:43:23;;;;;;;5.35;4.53;;;21.90;51.30;;;;;;5078771;28;20044;-73
2022/04/04 05:45:50;;;;;;;11.15;4.95;;;21.90;50.70;;;;;;5077001;28;20044;-71
2022/04/04 05:48:16;;;;;;;6.43;4.22;;;21.80;51.10;;;;;;5078345;28;20067;-70
2022/04/04 05:50:42;;;;;;;8.77;5.45;;;21.80;51.90;;;;;;5078567;28;20037;-70
2022/04/04 05:53:08;;;;;;;7.35;4.97;;;21.70;51.70;;;;;;5078461;28;20051;-72
2022/04/04 05:55:34;;;;;;;8.25;4.63;;;21.60;52.30;;;;;;5078663;28;20045;-72
2022/04/04 05:58:00;;;;;;;8.95;4.68;;;21.60;53.00;;;;;;5078620;28;20044;-73
2022/04/04 06:00:26;;;;;;;6.70;4.65;;;21.50;53.40;;;;;;5078335;28;20056;-72
2022/04/04 06:02:52;;;;;;;8.52;4.68;;;21.60;53.80;;;;;;5078380;28;20075;-73
2022/04/04 06:05:24;;;;;;;8.85;5.13;;;21.60;54.20;;;;;;5078198;28;20041;-72
2022/04/04 06:07:50;;;;;;;7.28;5.18;;;21.50;54.50;;;;;;5077093;28;20037;-71
2022/04/04 06:10:17;;;;;;;8.20;4.70;;;21.50;54.40;;;;;;5077457;28;20044;-70
2022/04/04 06:12:44;;;;;;;7.47;4.70;;;21.60;54.60;;;;;;5078385;28;20072;-72
2022/04/04 06:15:14;;;;;;;5.35;4.60;;;21.50;54.70;;;;;;5078199;28;20044;-69
2022/04/04 06:17:41;;;;;;;7.07;4.50;;;21.60;54.90;;;;;;5078303;28;20045;-70
2022/04/04 06:20:08;;;;;;;6.25;4.28;;;21.60;55.30;;;;;;5078017;28;20044;-71
2022/04/04 06:22:39;;;;;;;8.35;4.65;;;21.70;54.90;;;;;;5078057;28;20037;-70
2022/04/04 06:25:08;;;;;;;10.50;5.03;;;21.70;55.30;;;;;;5078097;28;20048;-71
2022/04/04 06:27:36;;;;;;;9.80;5.50;;;21.70;55.40;;;;;;5078065;28;20036;-70
2022/04/04 06:30:03;;;;;;;7.82;4.88;;;21.60;54.70;;;;;;5077886;28;20044;-72
2022/04/04 06:32:29;;;;;;;8.88;5.55;;;21.70;54.90;;;;;;5077960;28;20041;-71
2022/04/04 06:34:56;;;;;;;7.93;4.70;;;21.80;54.00;;;;;;5076996;28;20065;-71
2022/04/04 06:37:23;;;;;;;8.60;4.60;;;21.80;54.40;;;;;;5077793;28;20104;-70
2022/04/04 06:39:49;;;;;;;7.90;4.70;;;21.70;54.90;;;;;;5077546;28;20091;-71
2022/04/04 06:42:15;;;;;;;7.10;4.95;;;21.90;54.90;;;;;;5077346;28;20033;-70
2022/04/04 06:44:42;;;;;;;6.30;4.25;;;21.90;54.90;;;;;;5077739;28;20063;-71
2022/04/04 06:47:11;;;;;;;6.57;4.68;;;21.80;54.90;;;;;;5077763;28;20446;-71
2022/04/04 06:49:37;;;;;;;8.15;4.68;;;21.80;54.90;;;;;;5077123;28;20071;-71
2022/04/04 06:52:04;;;;;;;9.63;4.95;;;21.90;54.60;;;;;;5077645;28;20048;-71
2022/04/04 06:54:30;;;;;;;7.85;5.25;;;21.90;53.70;;;;;;5076830;28;20037;-71
2022/04/04 06:56:56;;;;;;;7.68;5.05;;;21.90;53.80;;;;;;5077114;28;20041;-71
2022/04/04 06:59:22;;;;;;;6.75;4.82;;;21.90;54.10;;;;;;5077185;28;20052;-72
2022/04/04 07:01:50;;;;;;;9.18;5.57;;;21.80;53.10;;;;;;5077024;28;20082;-72
2022/04/04 07:04:16;;;;;;;9.90;5.72;;;22.00;54.00;;;;;;5077238;28;20108;-72
2022/04/04 07:06:42;;;;;;;9.57;5.78;;;22.00;53.20;;;;;;5077310;28;20041;-72
2022/04/04 07:09:09;;;;;;;7.22;4.90;;;21.90;53.10;;;;;;5076518;28;20071;-72
2022/04/04 07:11:35;;;;;;;6.88;4.15;;;22.00;53.00;;;;;;5075842;28;20048;-71
2022/04/04 07:14:02;;;;;;;8.75;4.70;;;22.00;53.20;;;;;;5076510;28;20048;-71
2022/04/04 07:16:30;;;;;;;6.07;3.45;;;22.00;54.40;;;;;;5076098;28;20055;-71
2022/04/04 07:18:56;;;;;;;5.35;3.55;;;22.10;54.80;;;;;;5076361;28;20036;-70
2022/04/04 07:21:22;;;;;;;5.85;3.55;;;22.10;52.50;;;;;;5076546;28;20100;-71
2022/04/04 07:23:50;;;;;;;5.05;3.90;;;22.20;53.30;;;;;;5076416;28;20037;-72
2022/04/04 07:26:19;;;;;;;6.50;3.30;;;22.10;52.90;;;;;;5076185;28;20039;-71
2022/04/04 07:28:46;;;;;;;4.95;3.75;;;22.10;53.80;;;;;;5075703;28;20067;-72
2022/04/04 07:31:14;;;;;;;2.80;2.33;;;22.30;51.30;;;;;;5076592;28;20037;-69
2022/04/04 07:33:40;;;;;;;3.30;2.20;;;22.10;52.80;;;;;;5075689;28;20044;-69
2022/04/04 07:36:10;;;;;;;5.30;3.30;;;22.10;52.00;;;;;;5075684;28;20123;-71
2022/04/04 07:38:37;;;;;;;5.90;3.58;;;22.10;50.00;;;;;;5074987;28;20052;-70
2022/04/04 07:41:03;;;;;;;3.13;2.83;;;22.20;50.00;;;;;;5076792;28;20108;-70
2022/04/04 07:43:29;;;;;;;8.75;3.45;;;22.20;49.20;;;;;;5076398;28;20040;-70
2022/04/04 07:45:56;;;;;;;4.30;3.60;;;22.30;49.20;;;;;;5076501;28;20037;-71
2022/04/04 07:48:23;;;;;;;8.43;1.35;;;22.30;53.40;;;;;;5076563;28;20076;-73
2022/04/04 07:50:51;;;;;;;15.23;5.72;;;22.70;51.10;;;;;;5076655;28;20037;-73
2022/04/04 07:53:18;;;;;;;108.80;27.10;;;22.70;40.90;;;;;;5076385;28;20048;-73
2022/04/04 07:55:45;;;;;;;15.23;5.97;;;22.90;50.80;;;;;;5076388;28;20452;-74
2022/04/04 07:58:11;;;;;;;22.38;8.05;;;22.90;36.50;;;;;;5076326;28;20036;-74
2022/04/04 08:00:37;;;;;;;10.73;6.53;;;22.90;37.40;;;;;;5064697;28;20101;-74
2022/04/04 08:03:04;;;;;;;7.47;4.38;;;22.90;32.00;;;;;;5055824;28;20108;-73
2022/04/04 08:05:31;;;;;;;8.60;3.97;;;22.80;39.50;;;;;;5055634;28;20041;-72
2022/04/04 08:07:57;;;;;;;6.28;3.42;;;22.80;32.50;;;;;;5055459;28;20033;-72
2022/04/04 08:10:23;;;;;;;6.10;3.75;;;22.90;35.50;;;;;;5056198;28;20061;-70
2022/04/04 08:12:53;;;;;;;5.97;3.67;;;22.80;33.40;;;;;;5055863;28;20041;-71
2022/04/04 08:15:20;;;;;;;4.93;3.78;;;22.80;33.70;;;;;;5055968;28;20113;-73
2022/04/04 08:17:46;;;;;;;10.57;3.78;;;22.70;35.00;;;;;;5056140;28;20041;-72
2022/04/04 08:20:13;;;;;;;5.10;4.03;;;22.90;37.90;;;;;;5055995;28;20044;-72
2022/04/04 08:22:41;;;;;;;6.80;4.15;;;22.90;38.80;;;;;;5055939;28;20328;-71
2022/04/04 08:25:09;;;;;;;8.90;3.35;;;22.70;44.50;;;;;;5055982;28;20079;-71
2022/04/04 08:27:35;;;;;;;5.32;3.33;;;22.90;35.90;;;;;;5055284;28;20030;-71
2022/04/04 08:30:06;;;;;;;7.03;3.90;;;22.90;36.80;;;;;;5055461;28;20072;-71
2022/04/04 08:32:36;;;;;;;5.75;3.63;;;22.90;34.50;;;;;;5055816;28;20068;-73
2022/04/04 08:35:04;;;;;;;6.18;3.67;;;22.90;33.50;;;;;;5055699;28;20053;-72
2022/04/04 08:37:31;;;;;;;6.53;3.42;;;22.80;37.00;;;;;;5055502;28;20064;-70
2022/04/04 08:39:58;;;;;;;4.97;3.35;;;22.90;46.60;;;;;;5054355;28;20052;-71
2022/04/04 08:42:27;;;;;;;9.18;3.58;;;22.90;34.20;;;;;;5053991;28;20030;-72
2022/04/04 08:44:58;;;;;;;7.63;3.60;;;22.80;33.20;;;;;;5054238;28;20109;-73
2022/04/04 08:47:26;;;;;;;5.82;2.72;;;22.70;31.80;;;;;;5055683;28;20034;-71
2022/04/04 08:49:54;;;;;;;4.07;3.22;;;22.70;31.70;;;;;;5055199;28;20053;-73
2022/04/04 08:52:22;;;;;;;5.55;3.78;;;22.70;34.30;;;;;;5058683;28;20072;-79
2022/04/04 08:54:49;;;;;;;9.70;3.75;;;22.80;42.10;;;;;;5078429;28;20113;-72
2022/04/04 08:57:15;;;;;;;3.30;2.17;;;22.90;39.30;;;;;;5075022;28;20104;-72
2022/04/04 08:59:43;;;;;;;2.40;1.95;;;23.00;38.90;;;;;;5075719;28;20108;-76
2022/04/04 09:02:10;;;;;;;0.95;0.88;;;23.00;38.80;;;;;;5075521;28;20060;-80
2022/04/04 09:04:38;;;;;;;6.55;3.83;;;23.00;38.10;;;;;;5075655;28;20045;-72
2022/04/04 09:07:12;;;;;;;4.25;3.40;;;22.90;34.70;;;;;;5075513;28;20033;-71
2022/04/04 09:09:39;;;;;;;8.23;3.65;;;23.00;32.00;;;;;;5075180;28;20041;-72
2022/04/04 09:12:10;;;;;;;7.40;4.25;;;22.90;30.30;;;;;;5078058;28;20048;-72
2022/04/04 09:14:44;;;;;;;5.70;4.35;;;22.70;32.80;;;;;;5079488;28;20071;-71
2022/04/04 09:17:12;;;;;;;5.95;3.63;;;22.70;31.10;;;;;;5079317;28;20060;-72
2022/04/04 09:19:39;;;;;;;5.22;3.63;;;22.60;34.20;;;;;;5079174;28;20041;-72
2022/04/04 09:22:10;;;;;;;9.00;3.40;;;22.70;40.70;;;;;;5079152;28;20061;-74
2022/04/04 09:24:57;;;;;;;5.25;3.85;;;22.90;42.90;;;;;;5078658;28;20041;-72
2022/04/04 09:27:34;;;;;;;5.95;3.85;;;22.90;43.20;;;;;;5079063;28;20033;-72
2022/04/04 09:30:05;;;;;;;5.68;3.20;;;23.00;43.00;;;;;;5079219;28;20125;-72
2022/04/04 09:32:41;;;;;;;5.60;3.72;;;23.10;44.00;;;;;;5079285;28;20055;-73
2022/04/04 09:35:13;;;;;;;6.03;3.17;;;22.90;43.60;;;;;;5078532;28;20097;-74
2022/04/04 09:37:46;;;;;;;4.20;3.03;;;23.00;43.40;;;;;;5078628;28;20051;-75
2022/04/04 09:40:21;;;;;;;5.38;3.35;;;23.00;42.20;;;;;;5079139;28;20048;-74
2022/04/04 09:42:51;;;;;;;6.28;4.10;;;23.20;47.90;;;;;;5078992;28;20041;-73
2022/04/04 09:45:19;;;;;;;5.80;3.08;;;23.30;31.00;;;;;;5077995;28;20028;-73
2022/04/04 09:47:54;;;;;;;5.88;3.08;;;23.20;30.90;;;;;;5078639;28;20109;-72
2022/04/04 09:50:47;;;;;;;4.10;3.05;;;23.10;31.60;;;;;;5078705;28;20040;-72
2022/04/04 09:53:20;;;;;;;6.10;3.85;;;23.00;37.60;;;;;;5078533;28;20045;-72
2022/04/04 09:55:52;;;;;;;6.05;3.42;;;23.10;32.40;;;;;;5078259;28;20044;-71
2022/04/04 09:58:21;;;;;;;3.70;3.30;;;23.10;36.40;;;;;;5078338;28;20458;-71
2022/04/04 10:00:49;;;;;;;7.65;4.43;;;23.00;42.50;;;;;;5078440;28;20033;-73
2022/04/04 10:03:17;;;;;;;4.40;3.20;;;23.20;48.60;;;;;;5078174;28;20037;-72
2022/04/04 10:05:47;;;;;;;5.93;4.25;;;23.00;47.70;;;;;;5078052;28;20063;-71
2022/04/04 10:08:15;;;;;;;4.72;3.33;;;23.10;47.20;;;;;;5077666;28;20037;-73
2022/04/04 10:10:42;;;;;;;6.32;3.95;;;23.10;47.20;;;;;;5078438;28;20070;-72
2022/04/04 10:13:11;;;;;;;4.57;3.45;;;23.10;47.30;;;;;;5078127;28;20065;-71
2022/04/04 10:15:39;;;;;;;10.95;3.63;;;23.10;46.60;;;;;;5078370;28;20079;-71
2022/04/04 10:18:06;;;;;;;5.80;4.15;;;23.00;46.60;;;;;;5078362;28;20048;-71
2022/04/04 10:20:33;;;;;;;5.88;4.03;;;23.00;46.50;;;;;;5078286;28;20045;-72
2022/04/04 10:23:00;;;;;;;5.35;4.13;;;23.00;46.90;;;;;;5077415;28;20032;-72
2022/04/04 10:25:29;;;;;;;5.82;4.20;;;23.20;47.00;;;;;;5078071;28;20061;-71
2022/04/04 10:27:56;;;;;;;5.47;4.03;;;23.60;46.60;;;;;;5077825;28;20051;-72
2022/04/04 10:30:32;;;;;;;7.00;3.92;;;23.90;46.90;;;;;;5078025;28;20111;-72
2022/04/04 10:32:58;;;;;;;3.92;2.92;;;23.90;47.00;;;;;;5077927;28;20052;-71
2022/04/04 10:35:27;;;;;;;5.32;3.92;;;24.00;47.10;;;;;;5077225;28;20094;-71
2022/04/04 10:38:04;;;;;;;7.88;4.95;;;24.00;47.30;;;;;;5077791;28;20049;-71
2022/04/04 10:40:32;;;;;;;5.78;4.60;;;23.90;47.80;;;;;;5077697;28;20045;-71
2022/04/04 10:43:02;;;;;;;5.68;4.53;;;24.00;48.30;;;;;;5077673;28;20108;-72
2022/04/04 10:45:30;;;;;;;7.55;5.10;;;24.10;48.50;;;;;;5077738;28;20093;-72
2022/04/04 10:48:07;;;;;;;6.30;3.85;;;23.90;48.50;;;;;;5077646;28;20037;-72
2022/04/04 10:50:35;;;;;;;6.60;4.13;;;23.90;48.60;;;;;;5077695;28;20041;-71
2022/04/04 10:53:03;;;;;;;5.00;3.85;;;23.80;48.10;;;;;;5077637;28;20041;-72
2022/04/04 10:55:40;;;;;;;6.53;3.85;;;23.70;48.40;;;;;;5077404;28;20040;-71
2022/04/04 10:58:16;;;;;;;6.93;4.07;;;23.50;47.00;;;;;;5077683;28;20041;-71
2022/04/04 11:01:09;;;;;;;8.45;4.18;;;23.30;47.30;;;;;;5077434;28;20080;-72
2022/04/04 11:03:57;;;;;;;6.75;2.95;;;23.30;46.40;;;;;;5077449;28;20044;-71
2022/04/04 11:09:31;;;;;;;11.10;4.30;;;23.20;47.00;;;;;;5077258;28;20039;-71
2022/04/04 11:12:01;;;;;;;8.77;4.85;;;23.10;47.30;;;;;;5077112;28;20048;-70
2022/04/04 11:14:27;;;;;;;6.57;3.97;;;23.10;47.50;;;;;;5076911;28;20104;-70
2022/04/04 11:17:08;;;;;;;6.28;4.00;;;23.20;47.90;;;;;;5077018;28;20048;-71
2022/04/04 11:20:04;;;;;;;7.82;3.05;;;23.10;49.60;;;;;;5077156;28;20040;-70
2022/04/04 11:22:46;;;;;;;7.07;3.72;;;23.00;51.00;;;;;;5076577;28;20049;-70
2022/04/04 11:25:34;;;;;;;8.75;4.72;;;23.00;49.60;;;;;;5076125;28;20037;-70
2022/04/04 11:28:07;;;;;;;5.35;4.43;;;23.00;48.90;;;;;;5077089;28;20060;-71
2022/04/04 11:30:33;;;;;;;4.30;3.75;;;22.90;45.20;;;;;;5076716;28;20044;-70
2022/04/04 11:33:00;;;;;;;7.28;3.65;;;22.90;47.50;;;;;;5076713;28;20040;-70
2022/04/04 11:35:32;;;;;;;5.28;4.20;;;22.80;48.70;;;;;;5076026;28;20100;-72
2022/04/04 11:38:05;;;;;;;4.75;3.75;;;22.90;48.30;;;;;;5074821;28;20088;-71
2022/04/04 11:40:38;;;;;;;7.32;4.18;;;22.90;48.10;;;;;;5076023;28;20041;-71
2022/04/04 11:43:09;;;;;;;8.98;4.70;;;22.90;47.60;;;;;;5076373;28;20047;-71
2022/04/04 11:45:39;;;;;;;5.88;4.35;;;22.90;47.70;;;;;;5076422;28;20067;-71
2022/04/04 11:48:10;;;;;;;7.40;4.50;;;23.00;48.30;;;;;;5075704;28;20056;-71
2022/04/04 11:50:38;;;;;;;5.13;4.13;;;22.90;47.80;;;;;;5076340;28;20092;-70
2022/04/04 11:53:16;;;;;;;5.47;4.07;;;23.00;47.50;;;;;;5076440;28;20093;-71
2022/04/04 11:55:46;;;;;;;6.85;4.28;;;22.70;47.80;;;;;;5076260;28;20092;-71
2022/04/04 11:58:13;;;;;;;6.97;5.03;;;22.90;49.00;;;;;;5076387;28;20040;-71
2022/04/04 12:00:42;;;;;;;6.05;4.30;;;22.90;47.30;;;;;;5076211;28;20044;-71
2022/04/04 12:03:11;;;;;;;7.68;5.20;;;22.80;48.50;;;;;;5076271;28;20045;-70
2022/04/04 12:05:44;;;;;;;5.60;4.70;;;22.90;46.90;;;;;;5074511;28;20040;-70
2022/04/04 12:08:11;;;;;;;5.05;3.22;;;22.70;48.80;;;;;;5075362;28;20063;-70
2022/04/04 12:10:40;;;;;;;7.18;4.18;;;22.70;49.20;;;;;;5076331;28;20052;-70
2022/04/04 12:13:06;;;;;;;5.07;4.15;;;22.70;48.40;;;;;;5075854;28;20063;-70
2022/04/04 12:15:37;;;;;;;9.25;4.63;;;22.60;48.20;;;;;;5076057;28;20076;-70
2022/04/04 12:18:05;;;;;;;9.95;4.70;;;22.50;49.30;;;;;;5075353;28;20068;-70
2022/04/04 12:20:43;;;;;;;6.85;5.05;;;22.50;49.20;;;;;;5075518;28;20087;-70
2022/04/04 12:25:59;;;;;;;8.27;4.78;;;22.40;49.40;;;;;;5075976;28;20117;-70
2022/04/04 12:28:29;;;;;;;7.50;4.93;;;22.40;49.30;;;;;;5076061;28;20045;-71
2022/04/04 12:30:56;;;;;;;7.72;4.95;;;22.50;49.50;;;;;;5075768;28;20048;-71
2022/04/04 12:33:33;;;;;;;7.60;4.03;;;22.50;49.50;;;;;;5075914;28;20041;-70
2022/04/04 12:36:00;;;;;;;7.00;4.07;;;22.50;49.40;;;;;;5075962;28;20052;-70
2022/04/04 12:38:55;;;;;;;4.97;4.15;;;22.60;49.20;;;;;;5075747;28;20071;-71
2022/04/04 12:41:21;;;;;;;8.32;4.32;;;22.60;48.90;;;;;;5075406;28;20044;-71
2022/04/04 12:43:58;;;;;;;5.82;4.10;;;22.50;49.30;;;;;;5075757;28;20055;-71
2022/04/04 12:46:29;;;;;;;6.18;4.53;;;22.30;49.70;;;;;;5080677;28;20033;-70
2022/04/04 12:49:20;;;;;;;6.18;4.30;;;22.20;49.70;;;;;;5081755;28;20032;-70
2022/04/04 12:51:58;;;;;;;6.35;4.13;;;22.20;49.80;;;;;;5082386;28;20508;-70
2022/04/04 12:54:30;;;;;;;4.57;3.30;;;22.10;50.10;;;;;;5082144;28;20053;-70
2022/04/04 12:56:59;;;;;;;8.68;4.78;;;22.20;50.00;;;;;;5081702;28;20029;-70
2022/04/04 12:59:26;;;;;;;6.75;4.53;;;22.30;49.90;;;;;;5080886;28;20036;-70
2022/04/04 13:02:04;;;;;;;6.55;4.55;;;22.10;50.20;;;;;;5081356;28;20120;-70
2022/04/04 13:04:30;;;;;;;7.53;4.82;;;22.20;50.20;;;;;;5081613;28;20035;-70